createdAt,value
2018-05-14T00:01:51.053Z,12.33
2018-05-14T00:04:18.725Z,11.60
2018-05-14T00:06:46.386Z,12.23
2018-05-14T00:09:14.833Z,12.00
2018-05-14T00:11:42.502Z,11.60
2018-05-14T00:14:10.137Z,13.90
2018-05-14T00:16:37.807Z,11.23
2018-05-14T00:19:05.481Z,12.50
2018-05-14T00:21:33.154Z,11.90
2018-05-14T00:24:00.838Z,12.03
2018-05-14T00:26:29.241Z,11.17
2018-05-14T00:28:56.920Z,12.40
2018-05-14T00:31:24.569Z,14.73
2018-05-14T00:33:52.230Z,11.27
2018-05-14T00:36:19.889Z,13.30
2018-05-14T00:38:48.357Z,11.80
2018-05-14T00:41:16.030Z,13.93
2018-05-14T00:43:43.694Z,10.63
2018-05-14T00:46:11.379Z,9.27
2018-05-14T00:48:39.051Z,13.63
2018-05-14T00:51:06.741Z,9.63
2018-05-14T00:53:34.351Z,9.00
2018-05-14T00:56:01.995Z,11.27
2018-05-14T00:58:30.399Z,9.87
2018-05-14T01:00:58.860Z,12.20
2018-05-14T01:03:26.534Z,9.97
2018-05-14T01:05:54.180Z,9.10
2018-05-14T01:08:22.654Z,9.03
2018-05-14T01:10:50.336Z,8.17
2018-05-14T01:13:17.998Z,8.20
2018-05-14T01:15:45.639Z,8.00
2018-05-14T01:18:13.292Z,8.90
2018-05-14T01:20:40.947Z,7.37
2018-05-14T01:23:08.614Z,8.47
2018-05-14T01:25:37.044Z,7.40
2018-05-14T01:28:04.737Z,6.80
2018-05-14T01:30:32.438Z,7.03
2018-05-14T01:33:00.127Z,7.13
2018-05-14T01:35:27.803Z,6.53
2018-05-14T01:37:55.407Z,7.20
2018-05-14T01:40:23.081Z,6.87
2018-05-14T01:42:50.702Z,6.97
2018-05-14T01:45:18.368Z,6.50
2018-05-14T01:47:46.043Z,6.40
2018-05-14T01:50:13.683Z,6.63
2018-05-14T01:52:42.127Z,7.03
2018-05-14T01:55:09.777Z,8.53
2018-05-14T01:57:38.223Z,7.07
2018-05-14T02:00:05.884Z,7.63
2018-05-14T02:02:34.307Z,7.57
2018-05-14T02:05:01.989Z,8.70
2018-05-14T02:07:29.608Z,7.80
2018-05-14T02:09:57.297Z,7.53
2018-05-14T02:12:24.943Z,7.73
2018-05-14T02:14:52.597Z,8.23
2018-05-14T02:17:20.244Z,11.40
2018-05-14T02:19:47.945Z,8.47
2018-05-14T02:22:15.606Z,9.20
2018-05-14T02:24:43.250Z,11.67
2018-05-14T02:27:10.893Z,11.27
2018-05-14T02:29:38.553Z,11.67
2018-05-14T02:32:06.222Z,12.57
2018-05-14T02:34:34.622Z,13.13
2018-05-14T02:37:03.081Z,13.33
2018-05-14T02:39:30.759Z,13.30
2018-05-14T02:41:59.203Z,14.07
2018-05-14T02:44:26.881Z,17.33
2018-05-14T02:46:54.553Z,14.43
2018-05-14T02:49:22.219Z,14.93
2018-05-14T02:51:49.862Z,13.80
2018-05-14T02:54:17.460Z,14.67
2018-05-14T02:56:45.069Z,14.80
2018-05-14T02:59:14.195Z,14.73
2018-05-14T03:01:42.595Z,15.73
2018-05-14T03:04:11.037Z,15.97
2018-05-14T03:06:38.706Z,16.53
2018-05-14T03:09:06.380Z,17.73
2018-05-14T03:11:34.787Z,15.77
2018-05-14T03:14:03.202Z,17.83
2018-05-14T03:16:31.645Z,17.93
2018-05-14T03:18:59.286Z,20.37
2018-05-14T03:21:26.949Z,18.57
2018-05-14T03:23:54.586Z,19.23
2018-05-14T03:26:22.294Z,19.27
2018-05-14T03:28:49.981Z,18.53
2018-05-14T03:31:17.621Z,19.07
2018-05-14T03:33:45.303Z,20.13
2018-05-14T03:36:13.014Z,19.73
2018-05-14T03:38:41.490Z,22.13
2018-05-14T03:41:09.169Z,21.70
2018-05-14T03:43:36.830Z,21.40
2018-05-14T03:46:04.498Z,20.97
2018-05-14T03:48:32.648Z,21.47
2018-05-14T03:51:00.352Z,22.07
2018-05-14T03:53:27.987Z,22.40
2018-05-14T03:55:56.477Z,21.20
2018-05-14T04:01:42.521Z,23.30
2018-05-14T04:04:21.978Z,23.33
2018-05-14T04:06:49.560Z,21.37
2018-05-14T04:09:17.211Z,22.10
2018-05-14T04:11:45.633Z,22.07
2018-05-14T04:14:13.271Z,22.70
2018-05-14T04:16:41.002Z,22.20
2018-05-14T04:19:08.582Z,21.40
2018-05-14T04:21:36.238Z,22.73
2018-05-14T04:24:03.902Z,22.33
2018-05-14T04:26:31.505Z,21.80
2018-05-14T04:28:59.148Z,22.00
2018-05-14T04:31:27.550Z,20.77
2018-05-14T04:33:55.264Z,24.77
2018-05-14T04:36:22.950Z,22.80
2018-05-14T04:38:50.614Z,21.17
2018-05-14T04:41:18.277Z,21.73
2018-05-14T04:43:45.893Z,24.10
2018-05-14T04:46:13.584Z,24.63
2018-05-14T04:48:41.217Z,25.07
2018-05-14T04:51:08.886Z,26.87
2018-05-14T04:53:36.492Z,27.13
2018-05-14T04:56:04.165Z,26.70
2018-05-14T04:58:31.818Z,27.47
2018-05-14T05:00:59.467Z,25.57
2018-05-14T05:03:27.223Z,25.77
2018-05-14T05:05:54.928Z,26.80
2018-05-14T05:08:22.674Z,26.57
2018-05-14T05:10:50.363Z,25.23
2018-05-14T05:13:18.139Z,25.83
2018-05-14T05:15:45.819Z,25.67
2018-05-14T05:18:13.563Z,26.83
2018-05-14T05:20:41.272Z,26.63
2018-05-14T05:23:09.004Z,27.83
2018-05-14T05:25:36.708Z,26.93
2018-05-14T05:28:04.426Z,28.90
2018-05-14T05:30:32.184Z,27.77
2018-05-14T05:32:59.899Z,27.20
2018-05-14T05:38:21.065Z,27.67
2018-05-14T05:40:48.850Z,28.43
2018-05-14T05:43:16.810Z,28.03
2018-05-14T05:45:45.724Z,28.80
2018-05-14T05:48:15.165Z,26.93
2018-05-14T05:50:43.203Z,29.10
2018-05-14T05:53:11.751Z,26.83
2018-05-14T05:55:40.224Z,26.40
2018-05-14T05:58:07.974Z,26.73
2018-05-14T06:03:34.027Z,24.83
2018-05-14T06:06:02.780Z,27.07
2018-05-14T06:08:30.870Z,25.10
2018-05-14T06:10:58.980Z,25.33
2018-05-14T06:13:27.077Z,24.27
2018-05-14T06:15:55.018Z,25.33
2018-05-14T06:18:23.071Z,24.90
2018-05-14T06:20:51.002Z,23.67
2018-05-14T06:23:19.031Z,23.87
2018-05-14T06:25:46.999Z,24.60
2018-05-14T06:28:15.790Z,23.97
2018-05-14T06:30:44.504Z,24.80
2018-05-14T06:33:12.466Z,23.13
2018-05-14T06:35:40.577Z,23.60
2018-05-14T06:38:09.238Z,24.00
2018-05-14T06:40:37.208Z,24.33
2018-05-14T06:43:05.142Z,23.03
2018-05-14T06:45:33.183Z,21.67
2018-05-14T06:48:01.141Z,21.87
2018-05-14T06:50:29.257Z,24.00
2018-05-14T06:52:57.277Z,22.67
2018-05-14T06:55:25.229Z,22.23
2018-05-14T06:57:53.980Z,19.77
2018-05-14T07:00:21.913Z,20.47
2018-05-14T07:02:49.930Z,20.93
2018-05-14T07:05:17.878Z,20.27
2018-05-14T07:07:46.162Z,19.17
2018-05-14T07:10:14.153Z,18.53
2018-05-14T07:12:42.864Z,16.03
2018-05-14T07:15:10.934Z,16.00
2018-05-14T07:17:38.921Z,16.00
2018-05-14T07:20:07.721Z,16.43
2018-05-14T07:22:35.699Z,13.90
2018-05-14T07:25:07.080Z,12.63
2018-05-14T07:27:35.063Z,13.57
2018-05-14T07:30:03.095Z,12.77
2018-05-14T07:32:31.091Z,12.07
2018-05-14T07:34:59.140Z,12.90
2018-05-14T07:37:27.178Z,15.13
2018-05-14T07:39:55.145Z,12.90
2018-05-14T07:42:23.175Z,13.50
2018-05-14T07:44:51.132Z,13.17
2018-05-14T07:47:20.041Z,17.57
2018-05-14T07:49:47.933Z,14.03
2018-05-14T07:52:15.985Z,15.97
2018-05-14T07:54:44.031Z,12.60
2018-05-14T07:57:12.055Z,12.80
2018-05-14T07:59:40.072Z,13.80
2018-05-14T08:02:08.828Z,14.03
2018-05-14T08:04:37.615Z,16.03
2018-05-14T08:07:05.578Z,13.60
2018-05-14T08:09:33.563Z,13.30
2018-05-14T08:12:01.599Z,13.00
2018-05-14T08:14:36.644Z,14.10
2018-05-14T08:17:04.762Z,12.27
2018-05-14T08:19:33.037Z,15.23
2018-05-14T08:22:11.781Z,11.97
2018-05-14T08:24:41.030Z,11.73
2018-05-14T08:27:09.158Z,11.80
2018-05-14T08:29:37.125Z,11.63
2018-05-14T08:32:05.135Z,10.83
2018-05-14T08:34:33.257Z,11.73
2018-05-14T08:37:01.379Z,10.20
2018-05-14T08:39:30.337Z,14.50
2018-05-14T08:41:58.434Z,15.27
2018-05-14T08:44:26.526Z,10.77
2018-05-14T08:46:55.417Z,10.57
2018-05-14T08:49:23.506Z,9.00
2018-05-14T08:51:52.140Z,13.37
2018-05-14T08:54:19.990Z,7.73
2018-05-14T08:56:47.947Z,10.97
2018-05-14T08:59:16.749Z,10.73
2018-05-14T09:01:44.657Z,7.93
2018-05-14T09:04:12.354Z,8.30
2018-05-14T09:06:40.098Z,14.20
2018-05-14T09:09:07.857Z,8.17
2018-05-14T09:11:35.569Z,8.20
2018-05-14T09:14:03.332Z,7.43
2018-05-14T09:16:31.095Z,10.43
2018-05-14T09:21:52.799Z,14.20
2018-05-14T09:24:20.566Z,7.53
2018-05-14T09:26:48.250Z,6.67
2018-05-14T09:29:15.979Z,6.70
2018-05-14T09:31:43.697Z,10.07
2018-05-14T09:34:11.392Z,8.90
2018-05-14T09:36:39.121Z,6.03
2018-05-14T09:39:06.865Z,22.73
2018-05-14T09:41:35.331Z,8.10
2018-05-14T09:44:03.055Z,7.10
2018-05-14T09:46:31.532Z,6.67
2018-05-14T09:48:59.276Z,6.57
2018-05-14T09:51:26.948Z,6.07
2018-05-14T09:53:54.888Z,5.43
2018-05-14T09:56:22.881Z,5.93
2018-05-14T09:59:01.777Z,6.17
2018-05-14T10:01:29.786Z,5.30
2018-05-14T10:03:57.766Z,8.13
2018-05-14T10:06:26.568Z,8.60
2018-05-14T10:08:54.504Z,4.47
2018-05-14T10:11:22.264Z,11.60
2018-05-14T10:13:49.934Z,7.43
2018-05-14T10:16:17.719Z,5.13
2018-05-14T10:18:45.436Z,3.93
2018-05-14T10:21:13.960Z,4.23
2018-05-14T10:23:41.713Z,8.97
2018-05-14T10:26:09.646Z,5.77
2018-05-14T10:28:37.355Z,5.17
2018-05-14T10:31:05.038Z,5.43
2018-05-14T10:33:32.782Z,6.60
2018-05-14T10:36:00.451Z,7.20
2018-05-14T10:38:28.191Z,7.27
2018-05-14T10:40:55.899Z,5.63
2018-05-14T10:43:23.606Z,5.17
2018-05-14T10:45:51.319Z,5.30
2018-05-14T10:48:19.027Z,5.93
2018-05-14T10:50:46.756Z,6.83
2018-05-14T10:53:14.464Z,6.33
2018-05-14T10:55:42.178Z,5.23
2018-05-14T10:58:09.860Z,5.13
2018-05-14T11:00:37.629Z,6.03
2018-05-14T11:03:05.348Z,7.20
2018-05-14T11:05:33.834Z,5.03
2018-05-14T11:08:01.572Z,5.10
2018-05-14T11:10:29.368Z,5.03
2018-05-14T11:12:57.063Z,6.63
2018-05-14T11:15:24.730Z,5.90
2018-05-14T11:17:52.528Z,5.37
2018-05-14T11:20:20.976Z,7.03
2018-05-14T11:22:48.726Z,7.97
2018-05-14T11:25:16.448Z,5.47
2018-05-14T11:27:44.231Z,8.73
2018-05-14T11:30:11.998Z,4.20
2018-05-14T11:32:39.708Z,6.60
2018-05-14T11:35:07.443Z,4.50
2018-05-14T11:37:35.128Z,5.30
2018-05-14T11:40:02.876Z,4.10
2018-05-14T11:42:30.576Z,3.97
2018-05-14T11:44:58.332Z,5.27
2018-05-14T11:47:26.056Z,3.53
2018-05-14T11:49:53.789Z,3.80
2018-05-14T11:52:22.273Z,4.40
2018-05-14T11:54:49.984Z,4.00
2018-05-14T11:57:18.588Z,5.53
2018-05-14T11:59:47.056Z,6.33
2018-05-14T12:08:20.319Z,5.53
2018-05-14T12:10:49.444Z,6.50
2018-05-14T12:13:17.176Z,4.93
2018-05-14T12:15:44.931Z,4.37
2018-05-14T12:18:13.429Z,5.07
2018-05-14T12:20:41.192Z,6.90
2018-05-14T12:23:09.707Z,5.90
2018-05-14T12:25:52.609Z,4.90
2018-05-14T12:28:20.963Z,5.13
2018-05-14T12:30:48.751Z,5.10
2018-05-14T12:33:18.792Z,6.97
2018-05-14T12:35:47.483Z,8.47
2018-05-14T12:38:15.215Z,7.13
2018-05-14T12:40:42.885Z,4.80
2018-05-14T12:43:10.891Z,10.87
2018-05-14T12:45:38.588Z,8.50
2018-05-14T12:48:06.294Z,4.67
2018-05-14T12:50:34.163Z,6.57
2018-05-14T12:53:02.017Z,7.03
2018-05-14T12:55:29.739Z,4.23
2018-05-14T12:57:57.440Z,6.33
2018-05-14T13:00:25.161Z,5.77
2018-05-14T13:02:52.851Z,7.70
2018-05-14T13:05:20.599Z,8.43
2018-05-14T13:07:48.344Z,5.07
2018-05-14T13:10:16.813Z,7.63
2018-05-14T13:12:44.536Z,7.07
2018-05-14T13:15:12.992Z,5.17
2018-05-14T13:17:40.744Z,9.30
2018-05-14T13:20:08.515Z,4.20
2018-05-14T13:22:37.041Z,3.93
2018-05-14T13:25:05.547Z,12.07
2018-05-14T13:27:33.291Z,5.77
2018-05-14T13:30:01.103Z,7.77
2018-05-14T13:32:30.808Z,4.60
2018-05-14T13:34:58.856Z,3.80
2018-05-14T13:37:26.613Z,5.00
2018-05-14T13:39:54.330Z,7.40
2018-05-14T13:42:22.840Z,2.70
2018-05-14T13:44:51.316Z,4.60
2018-05-14T13:47:19.056Z,11.47
2018-05-14T13:49:46.808Z,5.50
2018-05-14T13:52:15.357Z,5.43
2018-05-14T13:54:43.095Z,4.57
2018-05-14T13:57:10.800Z,8.00
2018-05-14T13:59:39.283Z,4.00
2018-05-14T14:02:07.012Z,6.13
2018-05-14T14:04:35.465Z,4.43
2018-05-14T14:07:03.440Z,4.30
2018-05-14T14:09:31.166Z,6.20
2018-05-14T14:11:58.903Z,3.63
2018-05-14T14:14:26.669Z,3.17
2018-05-14T14:16:54.397Z,4.23
2018-05-14T14:19:22.155Z,2.63
2018-05-14T14:21:50.619Z,4.67
2018-05-14T14:24:18.398Z,4.13
2018-05-14T14:26:46.111Z,3.73
2018-05-14T14:29:13.816Z,3.47
2018-05-14T14:31:42.255Z,4.23
2018-05-14T14:34:10.012Z,2.53
2018-05-14T14:36:37.800Z,4.67
2018-05-14T14:39:06.271Z,5.57
2018-05-14T14:41:34.007Z,5.97
2018-05-14T14:44:01.755Z,10.43
2018-05-14T14:46:29.523Z,6.37
2018-05-14T14:48:57.243Z,8.73
2018-05-14T14:51:25.006Z,5.73
2018-05-14T14:53:52.675Z,7.63
2018-05-14T14:56:20.306Z,4.97
2018-05-14T14:58:47.967Z,7.30
2018-05-14T15:01:15.589Z,5.47
2018-05-14T15:03:44.006Z,6.33
2018-05-14T15:06:12.397Z,5.23
2018-05-14T15:08:40.850Z,5.80
2018-05-14T15:11:08.469Z,5.60
2018-05-14T15:13:36.121Z,5.70
2018-05-14T15:16:03.790Z,8.40
2018-05-14T15:18:32.182Z,12.90
2018-05-14T15:21:00.950Z,5.50
2018-05-14T15:23:28.566Z,6.20
2018-05-14T15:25:56.216Z,6.73
2018-05-14T15:28:23.835Z,6.97
2018-05-14T15:30:51.487Z,6.77
2018-05-14T15:33:19.107Z,7.23
2018-05-14T15:35:46.774Z,6.30
2018-05-14T15:38:14.430Z,8.93
2018-05-14T15:40:42.075Z,7.63
2018-05-14T15:43:09.743Z,6.10
2018-05-14T15:45:37.362Z,6.63
2018-05-14T15:48:05.811Z,7.10
2018-05-14T15:50:33.427Z,7.67
2018-05-14T15:53:01.074Z,11.53
2018-05-14T15:55:28.723Z,8.27
2018-05-14T15:57:57.142Z,8.50
2018-05-14T16:00:24.953Z,8.30
2018-05-14T16:02:52.618Z,12.27
2018-05-14T16:05:21.010Z,8.47
2018-05-14T16:07:49.432Z,8.17
2018-05-14T16:10:21.100Z,7.47
2018-05-14T16:12:48.843Z,7.77
2018-05-14T16:15:16.495Z,9.03
2018-05-14T16:17:44.883Z,8.00
2018-05-14T16:20:13.310Z,8.40
2018-05-14T16:22:41.703Z,8.90
2018-05-14T16:25:13.022Z,7.43
2018-05-14T16:27:40.650Z,10.03
2018-05-14T16:30:08.329Z,8.53
2018-05-14T16:32:36.007Z,8.20
2018-05-14T16:35:03.700Z,9.20
2018-05-14T16:37:31.351Z,8.60
2018-05-14T16:39:58.966Z,8.63
2018-05-14T16:42:26.903Z,7.77
2018-05-14T16:44:55.298Z,11.10
2018-05-14T16:47:23.859Z,10.07
2018-05-14T16:49:51.507Z,7.63
2018-05-14T17:01:20.123Z,7.40
2018-05-14T17:03:48.526Z,9.27
2018-05-14T17:06:16.991Z,8.47
2018-05-14T17:08:45.402Z,8.17
2018-05-14T17:11:13.915Z,7.63
2018-05-14T17:13:42.321Z,8.43
2018-05-14T17:16:10.750Z,7.97
2018-05-14T17:18:38.404Z,8.37
2018-05-14T17:21:06.363Z,7.53
2018-05-14T17:23:34.839Z,7.63
2018-05-14T17:26:02.463Z,7.70
2018-05-14T17:28:30.122Z,8.07
2018-05-14T17:30:57.796Z,8.00
2018-05-14T17:33:25.466Z,8.27
2018-05-14T17:35:53.093Z,8.03
2018-05-14T17:38:20.746Z,9.60
2018-05-14T17:40:48.393Z,7.53
2018-05-14T17:43:16.471Z,8.63
2018-05-14T17:45:44.891Z,8.40
2018-05-14T17:48:12.815Z,7.90
2018-05-14T17:50:41.240Z,7.53
2018-05-14T17:53:08.863Z,8.63
2018-05-14T17:55:36.695Z,8.73
2018-05-14T17:58:05.239Z,9.20
2018-05-14T18:00:32.975Z,10.17
2018-05-14T18:03:00.638Z,10.47
2018-05-14T18:05:29.031Z,9.67
2018-05-14T18:07:58.151Z,10.50
2018-05-14T18:10:32.042Z,9.00
2018-05-14T18:12:59.824Z,9.60
2018-05-14T18:15:28.182Z,8.83
2018-05-14T18:17:56.993Z,7.77
2018-05-14T18:20:25.586Z,13.07
2018-05-14T18:22:54.254Z,8.97
2018-05-14T18:25:28.356Z,13.87
2018-05-14T18:28:11.949Z,9.73
2018-05-14T18:30:40.377Z,8.97
2018-05-14T18:33:11.607Z,11.03
2018-05-14T18:35:44.218Z,15.23
2018-05-14T18:38:11.877Z,8.27
2018-05-14T18:40:39.504Z,7.60
2018-05-14T18:43:07.322Z,8.67
2018-05-14T18:45:35.755Z,15.97
2018-05-14T18:48:03.797Z,14.53
2018-05-14T18:50:31.443Z,11.20
2018-05-14T18:52:59.067Z,13.07
2018-05-14T18:55:26.777Z,14.57
2018-05-14T18:57:54.473Z,14.37
2018-05-14T19:09:15.072Z,13.13
2018-05-14T19:11:49.395Z,8.67
2018-05-14T19:14:17.085Z,8.80
2018-05-14T19:16:50.595Z,9.80
2018-05-14T19:19:18.287Z,8.40
2018-05-14T19:21:45.907Z,9.50
2018-05-14T19:24:13.571Z,8.50
2018-05-14T19:26:41.197Z,8.10
2018-05-14T19:29:16.473Z,8.50
2018-05-14T19:31:44.993Z,8.83
2018-05-14T19:34:19.648Z,9.33
2018-05-14T19:36:48.873Z,9.47
2018-05-14T19:42:25.047Z,8.93
2018-05-14T19:44:52.706Z,10.23
2018-05-14T19:47:21.190Z,9.10
2018-05-14T19:49:49.023Z,8.37
2018-05-14T19:52:16.675Z,9.43
2018-05-14T19:54:44.295Z,9.70
2018-05-14T19:57:11.953Z,9.37
2018-05-14T19:59:41.363Z,8.97
2018-05-14T20:02:08.982Z,9.83
2018-05-14T20:04:37.394Z,10.30
2018-05-14T20:07:05.786Z,9.37
2018-05-14T20:09:34.199Z,11.57
2018-05-14T20:12:02.660Z,12.10
2018-05-14T20:14:30.273Z,12.87
2018-05-14T20:16:58.786Z,12.17
2018-05-14T20:19:26.455Z,10.37
2018-05-14T20:21:54.183Z,10.53
2018-05-14T20:24:21.838Z,10.70
2018-05-14T20:26:49.471Z,11.23
2018-05-14T20:29:17.132Z,12.33
2018-05-14T20:31:54.531Z,12.23
2018-05-14T20:34:22.190Z,13.07
2018-05-14T20:36:50.659Z,11.30
2018-05-14T20:39:18.331Z,11.97
2018-05-14T20:41:45.987Z,10.90
2018-05-14T20:44:13.818Z,10.17
2018-05-14T20:46:41.535Z,11.43
2018-05-14T20:49:09.223Z,10.67
2018-05-14T20:51:37.618Z,10.57
2018-05-14T20:54:05.282Z,10.87
2018-05-14T20:56:32.897Z,11.63
2018-05-14T20:59:00.700Z,11.70
2018-05-14T21:01:29.126Z,11.60
2018-05-14T21:03:56.746Z,12.77
2018-05-14T21:06:24.406Z,15.67
2018-05-14T21:08:52.047Z,11.93
2018-05-14T21:11:19.735Z,11.30
2018-05-14T21:13:47.543Z,10.07
2018-05-14T21:16:15.931Z,10.70
2018-05-14T21:18:43.590Z,10.40
2018-05-14T21:21:11.215Z,10.40
2018-05-14T21:23:39.974Z,9.80
2018-05-14T21:26:07.638Z,10.20
2018-05-14T21:28:35.258Z,10.30
2018-05-14T21:31:02.902Z,9.93
2018-05-14T21:33:30.515Z,9.57
2018-05-14T21:35:58.162Z,9.23
2018-05-14T21:38:26.584Z,10.20
2018-05-14T21:40:54.209Z,9.50
2018-05-14T21:43:21.867Z,9.47
2018-05-14T21:45:49.483Z,9.50
2018-05-14T21:48:17.143Z,9.53
2018-05-14T21:50:44.793Z,10.00
2018-05-14T21:53:12.419Z,10.27
2018-05-14T21:55:40.081Z,8.60
2018-05-14T21:58:07.698Z,9.27
2018-05-14T22:00:35.358Z,9.60
2018-05-14T22:03:03.007Z,9.13
2018-05-14T22:05:30.654Z,9.00
2018-05-14T22:14:01.105Z,9.50
2018-05-14T22:16:28.735Z,10.00
2018-05-14T22:18:56.462Z,10.13
2018-05-14T22:21:24.122Z,9.63
2018-05-14T22:23:51.734Z,8.70
2018-05-14T22:26:19.363Z,9.27
2018-05-14T22:28:47.015Z,8.80
2018-05-14T22:31:14.666Z,9.33
2018-05-14T22:33:42.274Z,9.87
2018-05-14T22:36:09.923Z,9.30
2018-05-14T22:38:37.536Z,8.40
2018-05-14T22:41:05.962Z,9.77
2018-05-14T22:43:33.619Z,9.33
2018-05-14T22:46:02.008Z,9.53
2018-05-14T22:48:29.662Z,9.40
2018-05-14T22:50:57.273Z,8.67
2018-05-14T22:53:24.928Z,8.83
2018-05-14T22:55:52.591Z,8.93
2018-05-14T22:58:20.214Z,9.27
2018-05-14T23:00:47.911Z,10.17
2018-05-14T23:03:15.607Z,15.30
2018-05-14T23:05:43.315Z,10.70
2018-05-14T23:08:11.871Z,9.67
2018-05-14T23:10:39.684Z,9.93
2018-05-14T23:13:07.431Z,10.37
2018-05-14T23:15:35.133Z,10.23
2018-05-14T23:18:02.843Z,10.17
2018-05-14T23:20:30.607Z,9.70
2018-05-14T23:22:58.308Z,9.93
2018-05-14T23:25:26.066Z,9.00
2018-05-14T23:27:53.755Z,9.40
2018-05-14T23:30:21.515Z,8.93
2018-05-14T23:32:49.236Z,9.30
2018-05-14T23:35:16.944Z,8.80
2018-05-14T23:37:44.687Z,8.30
2018-05-14T23:40:13.147Z,8.80
2018-05-14T23:42:40.859Z,8.67
2018-05-14T23:45:08.712Z,7.97
2018-05-14T23:47:36.402Z,7.93
2018-05-14T23:50:04.150Z,8.20
2018-05-14T23:52:32.586Z,9.50
2018-05-14T23:55:00.286Z,8.97
2018-05-14T23:57:28.020Z,9.20
2018-05-14T23:59:55.754Z,11.50
